Ana Sayfa
METAR-TAF:

METAR-TAF

Havaalanları :

Luksor, Mısır

Enlem: 25-40N, Boylam: 032-42E, yükseklik: 93 m

Güncel hava durumu gözlemi

Rapor saat 23:00 UTC de 1 saat ve 21 dakika önce yapıldı.
Rüzgar kuzey/kuzeydoğudan 6 kt
Sıcaklık 28°C
Nem 35%
Basınç 1013 hPa
Görüş mesafesi 10 km veya daha fazla
1500 m altında bulut yok ve kümülonimbus yok

METAR: HELX 192300Z 03006KT CAVOK 28/11 Q1013 NOSIG

Saat: 02:21 (00:21 UTC)

Tahmin

Rapor saat 23:00 UTC de 1 saat ve 21 dakika önce yapıldı.
Ayın 20'si saat 00 UTC'den ayın 21'si saat 06 UTC'ye kadar geçerli Tahmin
Rüzgar kuzeybatıdan 8 kt
Görüş mesafesi 10 km veya daha fazla
1500 m altında bulut yok ve kümülonimbus yok

TAF: HELX 192300Z 2000/2106 32008KT CAVOK

4.000'den fazla havaalanı için hava durumu gözlemleri ve tahminleri (METAR ve TAF raporları).

Kullanılabilir istasyonlar harita üzerinde sarı ve kırmızı noktalarla gösterilir.

İstasyonun adını görmek için fareyi noktanın üzerinde gezdirin.

Sonrasında hava gözlem ve tahminlerini görmek için tıklayın.

Haritayı değiştirmek için: yaklaştırmak için siyah artı işaretli yeşil düğmeye ve uzaklaştırmak için de eksi işaretli düğmeye hızla tıklayın; bitişik haritalar için yeşil okları kullanın.


METAR-TAF: